createdAt,value
2022-09-12T00:00:14.419Z,58.01
2022-09-12T00:01:14.480Z,57.36
2022-09-12T00:02:14.437Z,57.04
2022-09-12T00:03:14.395Z,53.71
2022-09-12T00:04:14.391Z,56.75
2022-09-12T00:05:14.385Z,55.83
2022-09-12T00:06:14.365Z,56.15
2022-09-12T00:07:14.364Z,56.11
2022-09-12T00:08:14.351Z,56.86
2022-09-12T00:09:14.340Z,55.86
2022-09-12T00:10:14.347Z,53.92
2022-09-12T00:11:14.347Z,54.73
2022-09-12T00:12:14.343Z,57.27
2022-09-12T00:13:14.319Z,54.29
2022-09-12T00:14:14.309Z,52.56
2022-09-12T00:15:14.307Z,55.13
2022-09-12T00:16:14.364Z,51.59
2022-09-12T00:17:14.306Z,53.80
2022-09-12T00:18:14.282Z,55.06
2022-09-12T00:19:14.263Z,55.07
2022-09-12T00:20:14.251Z,54.43
2022-09-12T00:21:14.242Z,55.66
2022-09-12T00:22:14.247Z,58.58
2022-09-12T00:23:14.249Z,53.95
2022-09-12T00:24:14.239Z,53.95
2022-09-12T00:25:14.221Z,55.57
2022-09-12T00:26:14.216Z,57.07
2022-09-12T00:27:14.196Z,55.29
2022-09-12T00:28:14.197Z,54.79
2022-09-12T00:29:14.200Z,55.66
2022-09-12T00:30:14.181Z,52.10
2022-09-12T00:31:14.236Z,56.74
2022-09-12T00:32:14.161Z,58.48
2022-09-12T00:33:14.155Z,54.38
2022-09-12T00:34:14.142Z,57.22
2022-09-12T00:35:14.218Z,56.24
2022-09-12T00:36:14.131Z,55.35
2022-09-12T00:37:14.124Z,56.55
2022-09-12T00:38:14.110Z,55.76
2022-09-12T00:39:14.112Z,56.51
2022-09-12T00:40:14.138Z,55.93
2022-09-12T00:41:14.118Z,55.16
2022-09-12T00:42:14.085Z,55.58
2022-09-12T00:43:14.066Z,54.88
2022-09-12T00:44:14.057Z,53.92
2022-09-12T00:45:14.048Z,56.65
2022-09-12T00:46:14.044Z,55.90
2022-09-12T00:47:14.062Z,56.72
2022-09-12T00:48:14.036Z,55.31
2022-09-12T00:49:14.018Z,54.82
2022-09-12T00:50:14.018Z,56.86
2022-09-12T00:51:14.005Z,55.43
2022-09-12T00:52:13.997Z,57.18
2022-09-12T00:53:14.005Z,57.68
2022-09-12T00:54:13.987Z,55.99
2022-09-12T00:55:13.977Z,58.20
2022-09-12T00:56:13.973Z,55.59
2022-09-12T00:57:13.964Z,56.13
2022-09-12T00:58:13.954Z,57.33
2022-09-12T00:59:13.960Z,56.97
2022-09-12T01:00:13.951Z,58.49
2022-09-12T01:01:14.053Z,58.65
2022-09-12T01:02:13.975Z,56.38
2022-09-12T01:03:13.909Z,57.67
2022-09-12T01:04:13.931Z,57.49
2022-09-12T01:05:13.900Z,56.77
2022-09-12T01:06:13.889Z,58.19
2022-09-12T01:07:13.884Z,60.45
2022-09-12T01:08:13.872Z,57.13
2022-09-12T01:09:13.862Z,57.35
2022-09-12T01:10:13.885Z,59.80
2022-09-12T01:11:13.849Z,60.17
2022-09-12T01:12:13.847Z,55.47
2022-09-12T01:13:13.832Z,58.41
2022-09-12T01:14:13.827Z,60.88
2022-09-12T01:15:13.826Z,56.51
2022-09-12T01:16:13.854Z,57.11
2022-09-12T01:17:13.791Z,57.87
2022-09-12T01:18:13.804Z,58.46
2022-09-12T01:19:13.798Z,58.01
2022-09-12T01:20:13.785Z,58.06
2022-09-12T01:21:13.774Z,60.36
2022-09-12T01:22:13.786Z,58.93
2022-09-12T01:23:13.751Z,60.72
2022-09-12T01:24:13.744Z,58.26
2022-09-12T01:25:13.739Z,61.60
2022-09-12T01:26:13.727Z,60.48
2022-09-12T01:27:13.722Z,57.72
2022-09-12T01:28:13.738Z,57.33
2022-09-12T01:29:13.701Z,57.01
2022-09-12T01:30:13.702Z,56.59
2022-09-12T01:31:13.706Z,57.80
2022-09-12T01:32:13.710Z,59.24
2022-09-12T01:33:13.669Z,58.23
2022-09-12T01:34:13.665Z,60.79
2022-09-12T01:35:13.658Z,59.70
2022-09-12T01:36:13.650Z,59.48
2022-09-12T01:37:13.666Z,58.17
2022-09-12T01:38:13.642Z,56.47
2022-09-12T01:39:13.632Z,57.26
2022-09-12T01:40:13.652Z,57.50
2022-09-12T01:41:13.617Z,56.28
2022-09-12T01:42:13.607Z,58.59
2022-09-12T01:43:13.614Z,56.41
2022-09-12T01:44:13.620Z,56.45
2022-09-12T01:45:13.591Z,60.02
2022-09-12T01:46:13.586Z,59.70
2022-09-12T01:47:13.569Z,61.13
2022-09-12T01:48:13.569Z,57.96
2022-09-12T01:49:13.556Z,58.75
2022-09-12T01:50:13.571Z,58.60
2022-09-12T01:51:13.540Z,59.24
2022-09-12T01:52:13.537Z,60.71
2022-09-12T01:53:13.547Z,58.27
2022-09-12T01:54:13.519Z,57.49
2022-09-12T01:55:13.508Z,57.47
2022-09-12T01:56:13.501Z,61.55
2022-09-12T01:57:13.490Z,60.90
2022-09-12T01:58:13.488Z,58.96
2022-09-12T01:59:13.490Z,57.78
2022-09-12T02:00:13.470Z,60.75
2022-09-12T02:01:13.487Z,56.82
2022-09-12T02:02:13.502Z,58.48
2022-09-12T02:03:13.448Z,57.39
2022-09-12T02:04:13.444Z,58.77
2022-09-12T02:05:13.439Z,57.54
2022-09-12T02:06:13.439Z,59.82
2022-09-12T02:07:13.436Z,59.37
2022-09-12T02:08:13.411Z,57.31
2022-09-12T02:09:13.390Z,57.94
2022-09-12T02:10:13.393Z,58.95
2022-09-12T02:11:13.389Z,57.96
2022-09-12T02:12:13.399Z,57.74
2022-09-12T02:13:13.364Z,58.40
2022-09-12T02:14:13.365Z,59.01
2022-09-12T02:15:13.374Z,59.70
2022-09-12T02:16:13.410Z,58.78
2022-09-12T02:17:13.337Z,55.24
2022-09-12T02:18:13.331Z,57.09
2022-09-12T02:19:13.318Z,59.77
2022-09-12T02:20:21.364Z,58.81
2022-09-12T02:21:14.305Z,56.46
2022-09-12T02:22:13.295Z,60.00
2022-09-12T02:23:13.291Z,58.74
2022-09-12T02:24:13.301Z,55.40
2022-09-12T02:25:13.269Z,56.04
2022-09-12T02:26:13.262Z,57.22
2022-09-12T02:27:13.255Z,56.89
2022-09-12T02:28:13.249Z,58.08
2022-09-12T02:29:13.259Z,56.50
2022-09-12T02:30:13.234Z,58.18
2022-09-12T02:31:13.240Z,57.44
2022-09-12T02:32:13.215Z,58.18
2022-09-12T02:33:13.240Z,58.85
2022-09-12T02:34:13.210Z,59.00
2022-09-12T02:35:13.195Z,56.67
2022-09-12T02:36:13.189Z,58.04
2022-09-12T02:37:13.202Z,58.58
2022-09-12T02:38:13.172Z,58.93
2022-09-12T02:39:13.169Z,56.91
2022-09-12T02:40:13.209Z,58.76
2022-09-12T02:41:13.149Z,58.18
2022-09-12T02:42:13.146Z,57.56
2022-09-12T02:43:13.148Z,57.70
2022-09-12T02:44:13.122Z,60.22
2022-09-12T02:45:13.116Z,58.51
2022-09-12T02:46:13.102Z,57.14
2022-09-12T02:47:13.091Z,59.67
2022-09-12T02:48:13.631Z,59.86
2022-09-12T02:49:13.087Z,58.54
2022-09-12T02:50:13.084Z,58.79
2022-09-12T02:51:13.071Z,58.28
2022-09-12T02:52:13.090Z,58.41
2022-09-12T02:53:13.052Z,58.48
2022-09-12T02:54:13.041Z,59.15
2022-09-12T02:55:13.037Z,59.67
2022-09-12T02:56:13.030Z,59.77
2022-09-12T02:57:13.029Z,59.57
2022-09-12T02:58:13.033Z,58.68
2022-09-12T02:59:13.024Z,59.90
2022-09-12T03:00:13.024Z,57.30
2022-09-12T03:01:12.999Z,58.41
2022-09-12T03:02:13.042Z,59.53
2022-09-12T03:03:12.983Z,60.22
2022-09-12T03:04:12.974Z,59.17
2022-09-12T03:05:12.998Z,59.50
2022-09-12T03:06:12.969Z,59.40
2022-09-12T03:07:12.956Z,59.92
2022-09-12T03:08:12.956Z,58.77
2022-09-12T03:09:12.935Z,59.42
2022-09-12T03:10:12.931Z,59.57
2022-09-12T03:11:12.943Z,60.52
2022-09-12T03:12:12.919Z,61.22
2022-09-12T03:13:12.931Z,57.99
2022-09-12T03:14:12.908Z,59.30
2022-09-12T03:15:12.899Z,58.65
2022-09-12T03:16:12.970Z,60.93
2022-09-12T03:17:12.880Z,59.97
2022-09-12T03:18:12.871Z,60.75
2022-09-12T03:19:12.869Z,59.48
2022-09-12T03:20:12.883Z,59.17
2022-09-12T03:21:12.849Z,59.80
2022-09-12T03:22:12.846Z,59.57
2022-09-12T03:23:12.836Z,59.98
2022-09-12T03:24:12.858Z,59.63
2022-09-12T03:25:12.816Z,59.53
2022-09-12T03:26:12.811Z,59.82
2022-09-12T03:27:12.809Z,58.58
2022-09-12T03:28:12.807Z,59.03
2022-09-12T03:29:12.808Z,60.48
2022-09-12T03:30:19.814Z,60.45
2022-09-12T03:31:12.773Z,60.42
2022-09-12T03:32:12.767Z,60.54
2022-09-12T03:33:12.768Z,59.67
2022-09-12T03:34:12.785Z,57.97
2022-09-12T03:35:12.743Z,60.21
2022-09-12T03:36:12.743Z,61.59
2022-09-12T03:37:12.730Z,61.60
2022-09-12T03:38:12.728Z,61.50
2022-09-12T03:39:12.714Z,61.13
2022-09-12T03:40:12.778Z,59.84
2022-09-12T03:41:12.719Z,60.95
2022-09-12T03:42:12.698Z,59.58
2022-09-12T03:43:12.696Z,60.30
2022-09-12T03:44:12.671Z,61.09
2022-09-12T03:45:12.669Z,59.18
2022-09-12T03:46:12.661Z,59.02
2022-09-12T03:47:12.670Z,60.57
2022-09-12T03:48:12.648Z,58.95
2022-09-12T03:49:12.657Z,59.90
2022-09-12T03:50:12.635Z,60.70
2022-09-12T03:51:12.647Z,60.30
2022-09-12T03:52:12.624Z,60.90
2022-09-12T03:53:16.930Z,60.73
2022-09-12T03:54:12.604Z,60.18
2022-09-12T03:55:12.596Z,60.76
2022-09-12T03:56:12.592Z,59.44
2022-09-12T03:57:12.601Z,57.97
2022-09-12T03:58:12.573Z,60.47
2022-09-12T03:59:12.561Z,60.66
2022-09-12T04:00:16.395Z,61.66
2022-09-12T04:01:12.678Z,60.11
2022-09-12T04:02:12.586Z,60.02
2022-09-12T04:03:12.531Z,60.21
2022-09-12T04:04:12.525Z,60.78
2022-09-12T04:05:12.544Z,60.24
2022-09-12T04:06:12.511Z,60.49
2022-09-12T04:07:12.498Z,61.58
2022-09-12T04:08:12.502Z,59.46
2022-09-12T04:09:12.489Z,60.24
2022-09-12T04:10:12.483Z,60.85
2022-09-12T04:11:12.483Z,60.45
2022-09-12T04:12:12.470Z,62.68
2022-09-12T04:13:12.458Z,60.36
2022-09-12T04:14:12.455Z,63.49
2022-09-12T04:15:12.456Z,59.78
2022-09-12T04:16:12.520Z,62.84
2022-09-12T04:17:12.451Z,61.42
2022-09-12T04:18:12.424Z,58.36
2022-09-12T04:19:12.418Z,61.04
2022-09-12T04:20:12.409Z,59.53
2022-09-12T04:21:12.395Z,59.54
2022-09-12T04:22:12.408Z,60.97
2022-09-12T04:23:12.386Z,61.34
2022-09-12T04:24:12.395Z,60.03
2022-09-12T04:25:12.364Z,59.52
2022-09-12T04:26:12.358Z,62.74
2022-09-12T04:27:12.383Z,62.15
2022-09-12T04:28:12.349Z,61.00
2022-09-12T04:29:12.342Z,60.77
2022-09-12T04:30:12.342Z,61.23
2022-09-12T04:31:12.327Z,61.08
2022-09-12T04:32:12.316Z,61.14
2022-09-12T04:33:12.333Z,60.28
2022-09-12T04:34:12.305Z,60.81
2022-09-12T04:35:12.292Z,59.68
2022-09-12T04:36:12.315Z,59.78
2022-09-12T04:37:12.283Z,58.77
2022-09-12T04:38:12.269Z,59.05
2022-09-12T04:39:12.258Z,59.10
2022-09-12T04:40:12.279Z,60.66
2022-09-12T04:41:12.253Z,58.95
2022-09-12T04:42:12.266Z,60.38
2022-09-12T04:43:14.486Z,59.36
2022-09-12T04:44:12.239Z,59.15
2022-09-12T04:45:12.223Z,60.34
2022-09-12T04:46:12.283Z,62.39
2022-09-12T04:47:12.215Z,61.02
2022-09-12T04:48:12.199Z,60.38
2022-09-12T04:49:12.190Z,60.73
2022-09-12T04:50:12.179Z,60.06
2022-09-12T04:51:12.175Z,60.44
2022-09-12T04:52:12.182Z,61.75
2022-09-12T04:53:12.165Z,60.41
2022-09-12T04:54:12.165Z,61.47
2022-09-12T04:55:12.142Z,62.41
2022-09-12T04:56:12.142Z,60.72
2022-09-12T04:57:12.154Z,61.52
2022-09-12T04:58:12.125Z,61.28
2022-09-12T04:59:12.123Z,61.30
2022-09-12T05:00:12.109Z,61.48
2022-09-12T05:01:12.161Z,60.56
2022-09-12T05:02:12.142Z,61.16
2022-09-12T05:03:12.080Z,62.13
2022-09-12T05:04:12.080Z,61.41
2022-09-12T05:05:12.071Z,61.39
2022-09-12T05:06:12.067Z,60.81
2022-09-12T05:07:12.072Z,62.06
2022-09-12T05:08:12.041Z,60.55
2022-09-12T05:09:12.038Z,62.43
2022-09-12T05:10:12.021Z,61.43
2022-09-12T05:11:12.037Z,61.31
2022-09-12T05:12:12.028Z,62.22
2022-09-12T05:13:12.002Z,62.18
2022-09-12T05:14:12.195Z,61.36
2022-09-12T05:15:11.987Z,61.20
2022-09-12T05:16:12.023Z,61.12
2022-09-12T05:17:11.962Z,61.70
2022-09-12T05:18:11.958Z,60.83
2022-09-12T05:19:11.941Z,60.59
2022-09-12T05:20:11.964Z,61.23
2022-09-12T05:21:11.930Z,62.26
2022-09-12T05:22:11.932Z,60.95
2022-09-12T05:23:11.911Z,60.69
2022-09-12T05:24:11.901Z,62.15
2022-09-12T05:25:11.900Z,61.35
2022-09-12T05:26:11.928Z,61.64
2022-09-12T05:27:11.903Z,61.77
2022-09-12T05:28:11.881Z,62.22
2022-09-12T05:29:11.866Z,61.91
2022-09-12T05:30:11.878Z,61.42
2022-09-12T05:31:11.847Z,60.45
2022-09-12T05:32:11.977Z,61.21
2022-09-12T05:33:11.846Z,62.06
2022-09-12T05:34:11.839Z,60.35
2022-09-12T05:35:11.833Z,62.11
2022-09-12T05:36:11.836Z,60.60
2022-09-12T05:37:11.798Z,62.18
2022-09-12T05:38:11.793Z,63.63
2022-09-12T05:39:11.828Z,63.69
2022-09-12T05:40:11.830Z,62.78
2022-09-12T05:41:16.951Z,62.81
2022-09-12T05:42:12.766Z,62.02
2022-09-12T05:43:11.783Z,62.43
2022-09-12T05:44:11.753Z,62.32
2022-09-12T05:45:11.739Z,61.79
2022-09-12T05:46:11.755Z,60.69
2022-09-12T05:47:11.715Z,62.11
2022-09-12T05:48:11.717Z,60.76
2022-09-12T05:49:11.722Z,61.32
2022-09-12T05:50:11.710Z,61.65
2022-09-12T05:51:11.679Z,60.82
2022-09-12T05:52:11.704Z,62.28
2022-09-12T05:53:11.672Z,63.02
2022-09-12T05:54:11.663Z,63.16
2022-09-12T05:55:11.681Z,62.06
2022-09-12T05:56:11.660Z,61.81
2022-09-12T05:57:11.641Z,61.78
2022-09-12T05:58:11.646Z,60.33
2022-09-12T05:59:11.618Z,60.52
2022-09-12T06:00:11.625Z,62.04
2022-09-12T06:01:11.690Z,60.57
2022-09-12T06:02:11.658Z,62.37
2022-09-12T06:03:11.598Z,62.31
2022-09-12T06:04:11.588Z,61.54
2022-09-12T06:05:11.613Z,62.54
2022-09-12T06:06:11.576Z,62.40
2022-09-12T06:07:11.580Z,63.68
2022-09-12T06:08:11.657Z,61.93
2022-09-12T06:09:11.626Z,60.77
2022-09-12T06:10:11.617Z,58.26
2022-09-12T06:11:11.621Z,61.12
2022-09-12T06:12:11.580Z,62.29
2022-09-12T06:13:11.560Z,61.74
2022-09-12T06:14:11.575Z,60.09
2022-09-12T06:15:11.529Z,61.59
2022-09-12T06:16:11.548Z,61.55
2022-09-12T06:17:11.516Z,61.00
2022-09-12T06:18:11.508Z,60.23
2022-09-12T06:19:11.509Z,62.80
2022-09-12T06:20:11.501Z,61.81
2022-09-12T06:21:11.500Z,61.20
2022-09-12T06:22:11.476Z,62.38
2022-09-12T06:23:11.456Z,60.42
2022-09-12T06:24:11.485Z,61.71
2022-09-12T06:25:11.484Z,61.35
2022-09-12T06:26:11.445Z,62.33
2022-09-12T06:27:11.437Z,61.43
2022-09-12T06:28:11.431Z,61.86
2022-09-12T06:29:11.422Z,60.41
2022-09-12T06:30:11.413Z,61.28
2022-09-12T06:31:11.482Z,61.08
2022-09-12T06:32:11.398Z,60.11
2022-09-12T06:33:11.384Z,61.72
2022-09-12T06:34:11.404Z,61.54
2022-09-12T06:35:11.375Z,60.51
2022-09-12T06:36:12.550Z,61.60
2022-09-12T06:37:11.382Z,61.05
2022-09-12T06:38:11.363Z,62.06
2022-09-12T06:39:11.346Z,60.39
2022-09-12T06:40:11.388Z,60.89
2022-09-12T06:41:11.352Z,61.26
2022-09-12T06:42:11.328Z,61.22
2022-09-12T06:43:11.341Z,61.80
2022-09-12T06:44:11.343Z,61.73
2022-09-12T06:45:11.323Z,62.77
2022-09-12T06:46:11.365Z,61.64
2022-09-12T06:47:11.299Z,62.17
2022-09-12T06:48:11.290Z,61.22
2022-09-12T06:49:11.301Z,61.98
2022-09-12T06:50:11.309Z,60.71
2022-09-12T06:51:11.281Z,61.05
2022-09-12T06:52:11.270Z,62.46
2022-09-12T06:53:11.287Z,61.14
2022-09-12T06:54:11.255Z,61.66
2022-09-12T06:55:11.242Z,61.19
2022-09-12T06:56:11.235Z,61.53
2022-09-12T06:57:11.226Z,61.19
2022-09-12T06:58:11.227Z,62.05
2022-09-12T06:59:11.244Z,60.89
2022-09-12T07:00:11.203Z,61.67
2022-09-12T07:01:11.242Z,60.34
2022-09-12T07:02:11.235Z,60.82
2022-09-12T07:03:11.187Z,61.45
2022-09-12T07:04:11.188Z,62.08
2022-09-12T07:05:11.179Z,61.47
2022-09-12T07:06:11.170Z,62.11
2022-09-12T07:07:11.157Z,61.65
2022-09-12T07:08:11.152Z,62.23
2022-09-12T07:09:11.160Z,61.63
2022-09-12T07:10:11.144Z,62.02
2022-09-12T07:11:11.123Z,62.22
2022-09-12T07:12:11.139Z,61.62
2022-09-12T07:13:11.110Z,60.07
2022-09-12T07:14:11.098Z,60.08
2022-09-12T07:15:11.107Z,61.65
2022-09-12T07:16:12.295Z,62.81
2022-09-12T07:17:11.172Z,60.40
2022-09-12T07:18:11.072Z,61.46
2022-09-12T07:19:11.074Z,62.07
2022-09-12T07:20:11.074Z,60.62
2022-09-12T07:21:11.046Z,61.65
2022-09-12T07:22:11.058Z,61.13
2022-09-12T07:23:11.033Z,61.35
2022-09-12T07:24:11.204Z,62.69
2022-09-12T07:25:11.029Z,62.82
2022-09-12T07:26:11.011Z,59.62
2022-09-12T07:27:11.017Z,62.33
2022-09-12T07:28:10.999Z,62.37
2022-09-12T07:29:36.602Z,60.90
2022-09-12T07:30:11.987Z,61.64
2022-09-12T07:31:11.034Z,61.38
2022-09-12T07:32:10.991Z,60.70
2022-09-12T07:33:10.951Z,62.79
2022-09-12T07:34:10.952Z,62.43
2022-09-12T07:35:10.953Z,61.47
2022-09-12T07:36:10.945Z,60.42
2022-09-12T07:37:10.950Z,61.49
2022-09-12T07:38:11.038Z,61.83
2022-09-12T07:39:10.906Z,62.70
2022-09-12T07:40:10.967Z,62.05
2022-09-12T07:41:10.896Z,62.41
2022-09-12T07:42:10.884Z,60.89
2022-09-12T07:43:10.880Z,60.57
2022-09-12T07:44:10.894Z,60.65
2022-09-12T07:45:10.869Z,60.86
2022-09-12T07:46:10.880Z,61.63
2022-09-12T07:47:10.848Z,61.78
2022-09-12T07:48:10.840Z,61.61
2022-09-12T07:49:10.827Z,61.12
2022-09-12T07:50:10.833Z,62.41
2022-09-12T07:51:10.827Z,62.71
2022-09-12T07:52:10.802Z,61.58
2022-09-12T07:53:10.797Z,60.86
2022-09-12T07:54:10.793Z,62.79
2022-09-12T07:55:10.799Z,62.47
2022-09-12T07:56:10.785Z,60.21
2022-09-12T07:57:10.754Z,59.76
2022-09-12T07:58:10.777Z,61.49
2022-09-12T07:59:10.766Z,62.61
2022-09-12T08:00:10.735Z,59.76
2022-09-12T08:01:10.763Z,60.78
2022-09-12T08:02:16.071Z,62.65
2022-09-12T08:03:11.733Z,62.31
2022-09-12T08:04:10.731Z,61.46
2022-09-12T08:05:10.705Z,60.67
2022-09-12T08:06:10.695Z,60.98
2022-09-12T08:07:10.695Z,58.51
2022-09-12T08:08:10.691Z,59.20
2022-09-12T08:09:10.678Z,60.53
2022-09-12T08:10:10.683Z,60.22
2022-09-12T08:11:10.658Z,61.82
2022-09-12T08:12:10.683Z,61.54
2022-09-12T08:13:10.960Z,60.50
2022-09-12T08:14:10.636Z,59.91
2022-09-12T08:15:10.621Z,58.03
2022-09-12T08:16:10.667Z,60.73
2022-09-12T08:17:10.616Z,59.54
2022-09-12T08:18:10.646Z,60.42
2022-09-12T08:19:10.591Z,59.02
2022-09-12T08:20:10.598Z,60.73
2022-09-12T08:21:10.582Z,58.74
2022-09-12T08:22:10.570Z,56.46
2022-09-12T08:23:10.559Z,59.26
2022-09-12T08:24:10.577Z,59.04
2022-09-12T08:25:10.536Z,60.92
2022-09-12T08:26:10.566Z,61.43
2022-09-12T08:27:10.532Z,60.16
2022-09-12T08:28:10.514Z,60.82
2022-09-12T08:29:10.530Z,59.88
2022-09-12T08:30:10.506Z,59.07
2022-09-12T08:31:10.547Z,60.22
2022-09-12T08:32:10.529Z,60.09
2022-09-12T08:33:10.482Z,61.04
2022-09-12T08:34:10.480Z,60.68
2022-09-12T08:35:10.490Z,61.75
2022-09-12T08:36:10.489Z,61.57
2022-09-12T08:37:10.456Z,61.31
2022-09-12T08:38:10.456Z,60.53
2022-09-12T08:39:10.434Z,61.19
2022-09-12T08:40:10.509Z,60.07
2022-09-12T08:41:10.422Z,60.00
2022-09-12T08:43:10.422Z,60.46
2022-09-12T08:44:10.400Z,61.17
2022-09-12T08:45:10.395Z,59.46
2022-09-12T08:46:10.451Z,59.99
2022-09-12T08:47:10.397Z,61.01
2022-09-12T08:48:10.372Z,61.68
2022-09-12T08:49:10.358Z,60.59
2022-09-12T08:50:10.371Z,59.18
2022-09-12T08:51:10.345Z,61.92
2022-09-12T08:52:10.363Z,60.32
2022-09-12T08:53:10.336Z,59.73
2022-09-12T08:54:10.325Z,57.85
2022-09-12T08:55:10.317Z,58.61
2022-09-12T08:56:10.303Z,59.72
2022-09-12T08:57:10.344Z,57.98
2022-09-12T08:58:10.284Z,60.26
2022-09-12T08:59:10.274Z,59.75
2022-09-12T09:00:10.276Z,59.47
2022-09-12T09:01:10.345Z,59.82
2022-09-12T09:02:10.315Z,59.92
2022-09-12T09:03:10.269Z,58.53
2022-09-12T09:04:10.245Z,57.68
2022-09-12T09:05:10.243Z,60.01
2022-09-12T09:06:10.224Z,59.65
2022-09-12T09:07:10.215Z,59.69
2022-09-12T09:08:10.217Z,59.47
2022-09-12T09:09:10.211Z,59.82
2022-09-12T09:10:10.194Z,59.06
2022-09-12T09:11:10.197Z,60.09
2022-09-12T09:12:10.172Z,59.61
2022-09-12T09:13:10.164Z,59.70
2022-09-12T09:14:10.183Z,59.56
2022-09-12T09:15:10.184Z,59.15
2022-09-12T09:16:10.197Z,59.28
2022-09-12T09:17:10.129Z,59.52
2022-09-12T09:18:10.120Z,59.01
2022-09-12T09:19:10.109Z,58.79
2022-09-12T09:20:10.107Z,58.43
2022-09-12T09:21:10.116Z,58.08
2022-09-12T09:22:10.081Z,59.17
2022-09-12T09:23:10.070Z,59.59
2022-09-12T09:24:10.082Z,58.40
2022-09-12T09:25:10.059Z,58.40
2022-09-12T09:26:10.061Z,60.16
2022-09-12T09:27:29.940Z,59.32
2022-09-12T09:28:11.052Z,59.52
2022-09-12T09:29:10.035Z,59.47
2022-09-12T09:30:10.025Z,58.97
2022-09-12T09:31:17.121Z,59.81
2022-09-12T09:32:10.005Z,58.46
2022-09-12T09:33:10.009Z,59.41
2022-09-12T09:34:09.986Z,58.42
2022-09-12T09:35:09.976Z,60.26
2022-09-12T09:36:09.971Z,60.05
2022-09-12T09:37:09.963Z,59.56
2022-09-12T09:38:09.955Z,60.89
2022-09-12T09:39:09.970Z,61.04
2022-09-12T09:40:09.972Z,59.72
2022-09-12T09:41:09.927Z,59.67
2022-09-12T09:42:09.921Z,58.85
2022-09-12T09:43:09.925Z,59.26
2022-09-12T09:44:09.912Z,59.47
2022-09-12T09:45:09.900Z,58.96
2022-09-12T09:46:09.963Z,58.92
2022-09-12T09:47:09.895Z,58.27
2022-09-12T09:48:09.869Z,58.11
2022-09-12T09:49:09.885Z,60.08
2022-09-12T09:50:09.859Z,58.88
2022-09-12T09:51:09.860Z,59.37
2022-09-12T09:52:09.871Z,59.38
2022-09-12T09:53:09.826Z,59.93
2022-09-12T09:54:09.835Z,60.31
2022-09-12T09:55:09.805Z,60.06
2022-09-12T09:56:09.823Z,59.26
2022-09-12T09:57:09.784Z,60.23
2022-09-12T09:58:09.797Z,59.57
2022-09-12T09:59:09.822Z,60.11
2022-09-12T10:00:09.785Z,59.58
2022-09-12T10:01:09.822Z,59.31
2022-09-12T10:02:09.818Z,59.26
2022-09-12T10:03:13.394Z,59.89
2022-09-12T10:04:09.744Z,59.86
2022-09-12T10:05:09.762Z,60.08
2022-09-12T10:06:09.751Z,59.70
2022-09-12T10:07:09.722Z,60.16
2022-09-12T10:08:09.714Z,59.84
2022-09-12T10:09:09.707Z,59.36
2022-09-12T10:10:09.718Z,59.75
2022-09-12T10:11:09.683Z,60.66
2022-09-12T10:12:09.689Z,58.91
2022-09-12T10:13:09.676Z,58.54
2022-09-12T10:14:09.677Z,58.40
2022-09-12T10:15:09.659Z,58.85
2022-09-12T10:16:09.802Z,58.74
2022-09-12T10:17:09.646Z,59.56
2022-09-12T10:18:09.647Z,59.84
2022-09-12T10:19:09.632Z,59.62
2022-09-12T10:20:20.935Z,59.00
2022-09-12T10:21:10.636Z,58.62
2022-09-12T10:22:09.633Z,59.18
2022-09-12T10:23:09.612Z,58.89
2022-09-12T10:24:09.604Z,58.19
2022-09-12T10:25:09.592Z,59.66
2022-09-12T10:26:09.592Z,59.88
2022-09-12T10:27:09.608Z,59.77
2022-09-12T10:28:09.569Z,59.07
2022-09-12T10:29:09.561Z,58.32
2022-09-12T10:30:09.554Z,59.20
2022-09-12T10:31:09.572Z,59.77
2022-09-12T10:32:09.535Z,59.64
2022-09-12T10:33:09.546Z,58.72
2022-09-12T10:34:09.526Z,58.95
2022-09-12T10:35:09.524Z,60.23
2022-09-12T10:36:09.511Z,58.41
2022-09-12T10:37:09.500Z,58.56
2022-09-12T10:38:09.499Z,59.87
2022-09-12T10:39:09.505Z,59.93
2022-09-12T10:40:09.577Z,59.49
2022-09-12T10:41:09.471Z,59.22
2022-09-12T10:42:09.457Z,58.75
2022-09-12T10:43:09.479Z,59.37
2022-09-12T10:44:09.475Z,57.61
2022-09-12T10:45:09.439Z,59.53
2022-09-12T10:46:09.487Z,59.41
2022-09-12T10:47:09.439Z,58.73
2022-09-12T10:48:09.418Z,59.83
2022-09-12T10:49:09.414Z,58.68
2022-09-12T10:50:09.445Z,58.12
2022-09-12T10:51:09.407Z,58.41
2022-09-12T10:52:09.424Z,59.07
2022-09-12T10:53:09.387Z,57.69
2022-09-12T10:54:09.382Z,59.03
2022-09-12T10:55:09.391Z,58.71
2022-09-12T10:56:09.361Z,58.96
2022-09-12T10:57:09.357Z,58.81
2022-09-12T10:58:09.348Z,58.76
2022-09-12T10:59:09.337Z,59.64
2022-09-12T11:00:09.354Z,59.08
2022-09-12T11:01:09.393Z,58.39
2022-09-12T11:02:09.394Z,58.77
2022-09-12T11:03:09.309Z,58.54
2022-09-12T11:04:09.304Z,59.07
2022-09-12T11:05:09.296Z,58.05
2022-09-12T11:06:09.303Z,59.10
2022-09-12T11:07:09.287Z,58.30
2022-09-12T11:08:09.278Z,58.83
2022-09-12T11:09:09.274Z,59.54
2022-09-12T11:10:09.262Z,58.69
2022-09-12T11:11:09.270Z,58.71
2022-09-12T11:12:09.254Z,58.51
2022-09-12T11:13:09.232Z,59.60
2022-09-12T11:14:09.227Z,58.16
2022-09-12T11:15:09.235Z,58.66
2022-09-12T11:16:09.275Z,59.29
2022-09-12T11:17:13.271Z,58.03
2022-09-12T11:18:09.207Z,57.83
2022-09-12T11:19:09.213Z,58.62
2022-09-12T11:20:09.202Z,58.97
2022-09-12T11:21:09.206Z,58.21
2022-09-12T11:22:09.197Z,58.37
2022-09-12T11:23:09.175Z,56.87
2022-09-12T11:24:09.178Z,58.10
2022-09-12T11:25:09.152Z,57.62
2022-09-12T11:26:09.155Z,58.09
2022-09-12T11:27:09.174Z,57.52
2022-09-12T11:28:09.159Z,58.40
2022-09-12T11:29:09.129Z,57.93
2022-09-12T11:30:09.143Z,58.43
2022-09-12T11:31:09.148Z,58.36
2022-09-12T11:32:09.108Z,58.24
2022-09-12T11:33:09.099Z,58.42
2022-09-12T11:34:09.121Z,57.68
2022-09-12T11:35:09.496Z,57.09
2022-09-12T11:36:09.074Z,57.99
2022-09-12T11:37:11.013Z,58.15
2022-09-12T11:38:09.059Z,58.46
2022-09-12T11:39:09.051Z,57.48
2022-09-12T11:40:09.100Z,56.02
2022-09-12T11:41:09.044Z,58.46
2022-09-12T11:42:09.028Z,58.51
2022-09-12T11:43:09.031Z,57.98
2022-09-12T11:44:09.026Z,57.89
2022-09-12T11:45:09.026Z,57.46
2022-09-12T11:46:09.043Z,57.53
2022-09-12T11:47:08.994Z,57.51
2022-09-12T11:48:08.989Z,57.56
2022-09-12T11:49:08.990Z,58.37
2022-09-12T11:50:09.014Z,59.30
2022-09-12T11:51:08.972Z,58.51
2022-09-12T11:52:08.966Z,58.48
2022-09-12T11:53:08.953Z,58.45
2022-09-12T11:54:08.961Z,59.51
2022-09-12T11:55:08.958Z,59.23
2022-09-12T11:56:08.940Z,59.21
2022-09-12T11:57:08.924Z,58.57
2022-09-12T11:58:08.920Z,58.06
2022-09-12T11:59:08.908Z,59.15
2022-09-12T12:00:08.941Z,59.45
2022-09-12T12:01:08.891Z,59.16
2022-09-12T12:02:08.944Z,60.02
2022-09-12T12:03:08.930Z,60.07
2022-09-12T12:04:08.883Z,58.39
2022-09-12T12:05:08.884Z,58.59
2022-09-12T12:06:08.885Z,59.61
2022-09-12T12:07:08.860Z,60.11
2022-09-12T12:08:08.850Z,60.51
2022-09-12T12:09:08.840Z,60.06
2022-09-12T12:10:08.865Z,60.84
2022-09-12T12:11:08.821Z,61.07
2022-09-12T12:12:08.819Z,59.75
2022-09-12T12:13:13.853Z,60.90
2022-09-12T12:14:09.812Z,59.31
2022-09-12T12:15:08.805Z,59.52
2022-09-12T12:16:08.841Z,59.26
2022-09-12T12:17:08.782Z,60.16
2022-09-12T12:18:08.785Z,59.20
2022-09-12T12:19:10.685Z,59.93
2022-09-12T12:20:08.929Z,58.90
2022-09-12T12:21:08.770Z,60.07
2022-09-12T12:22:08.765Z,59.10
2022-09-12T12:23:08.761Z,60.48
2022-09-12T12:24:08.740Z,60.42
2022-09-12T12:25:08.728Z,60.29
2022-09-12T12:26:08.728Z,60.21
2022-09-12T12:27:08.735Z,59.83
2022-09-12T12:28:08.726Z,60.11
2022-09-12T12:29:08.705Z,60.82
2022-09-12T12:30:08.722Z,60.62
2022-09-12T12:31:08.757Z,60.56
2022-09-12T12:32:08.702Z,58.84
2022-09-12T12:33:08.671Z,61.35
2022-09-12T12:34:08.696Z,60.69
2022-09-12T12:35:08.675Z,60.31
2022-09-12T12:36:08.645Z,59.48
2022-09-12T12:37:08.657Z,60.03
2022-09-12T12:38:08.633Z,60.26
2022-09-12T12:39:08.622Z,59.59
2022-09-12T12:40:08.733Z,58.42
2022-09-12T12:41:08.605Z,59.46
2022-09-12T12:42:08.622Z,60.55
2022-09-12T12:43:08.598Z,59.69
2022-09-12T12:44:08.602Z,58.75
2022-09-12T12:45:08.595Z,60.04
2022-09-12T12:46:08.619Z,60.48
2022-09-12T12:47:08.567Z,59.74
2022-09-12T12:48:08.564Z,59.96
2022-09-12T12:49:08.591Z,60.77
2022-09-12T12:50:08.588Z,60.16
2022-09-12T12:51:08.542Z,59.96
2022-09-12T12:52:08.535Z,59.81
2022-09-12T12:53:08.529Z,59.81